sensor_id;sensor_type;location;lat;lon;timestamp;temperature;humidity
67598;DHT22;62026;39.230;9.122;2022-07-23T00:01:41;30.30;56.60
67598;DHT22;62026;39.230;9.122;2022-07-23T00:04:07;30.30;56.70
67598;DHT22;62026;39.230;9.122;2022-07-23T00:06:33;30.30;56.70
67598;DHT22;62026;39.230;9.122;2022-07-23T00:08:59;30.30;56.60
67598;DHT22;62026;39.230;9.122;2022-07-23T00:11:25;30.20;56.50
67598;DHT22;62026;39.230;9.122;2022-07-23T00:13:51;30.20;56.50
67598;DHT22;62026;39.230;9.122;2022-07-23T00:16:18;30.20;56.50
67598;DHT22;62026;39.230;9.122;2022-07-23T00:18:44;30.20;56.40
67598;DHT22;62026;39.230;9.122;2022-07-23T00:21:10;30.20;56.50
67598;DHT22;62026;39.230;9.122;2022-07-23T00:23:36;30.20;56.40
67598;DHT22;62026;39.230;9.122;2022-07-23T00:26:03;30.20;56.40
67598;DHT22;62026;39.230;9.122;2022-07-23T00:28:30;30.10;56.40
67598;DHT22;62026;39.230;9.122;2022-07-23T00:30:57;30.10;56.30
67598;DHT22;62026;39.230;9.122;2022-07-23T00:33:23;30.10;56.30
67598;DHT22;62026;39.230;9.122;2022-07-23T00:35:49;30.10;56.20
67598;DHT22;62026;39.230;9.122;2022-07-23T00:38:15;30.10;55.90
67598;DHT22;62026;39.230;9.122;2022-07-23T00:40:41;30.10;55.20
67598;DHT22;62026;39.230;9.122;2022-07-23T00:43:08;30.00;55.20
67598;DHT22;62026;39.230;9.122;2022-07-23T00:45:34;30.00;55.20
67598;DHT22;62026;39.230;9.122;2022-07-23T00:48:00;30.00;54.50
67598;DHT22;62026;39.230;9.122;2022-07-23T00:50:28;30.00;52.90
67598;DHT22;62026;39.230;9.122;2022-07-23T00:52:55;29.90;51.20
67598;DHT22;62026;39.230;9.122;2022-07-23T00:55:22;29.90;49.80
67598;DHT22;62026;39.230;9.122;2022-07-23T00:57:48;29.80;49.30
67598;DHT22;62026;39.230;9.122;2022-07-23T01:00:16;29.80;48.00
67598;DHT22;62026;39.230;9.122;2022-07-23T01:02:42;29.80;47.10
67598;DHT22;62026;39.230;9.122;2022-07-23T01:05:09;29.80;46.80
67598;DHT22;62026;39.230;9.122;2022-07-23T01:07:36;29.80;46.80
67598;DHT22;62026;39.230;9.122;2022-07-23T01:10:03;29.70;46.90
67598;DHT22;62026;39.230;9.122;2022-07-23T01:12:29;29.70;47.20
67598;DHT22;62026;39.230;9.122;2022-07-23T01:14:57;29.70;47.60
67598;DHT22;62026;39.230;9.122;2022-07-23T01:17:25;29.70;47.80
67598;DHT22;62026;39.230;9.122;2022-07-23T01:19:52;29.70;48.00
67598;DHT22;62026;39.230;9.122;2022-07-23T01:22:19;29.70;48.10
67598;DHT22;62026;39.230;9.122;2022-07-23T01:24:46;29.70;48.30
67598;DHT22;62026;39.230;9.122;2022-07-23T01:27:13;29.70;48.40
67598;DHT22;62026;39.230;9.122;2022-07-23T01:29:40;29.70;48.60
67598;DHT22;62026;39.230;9.122;2022-07-23T01:32:16;29.70;48.80
67598;DHT22;62026;39.230;9.122;2022-07-23T01:34:43;29.70;48.70
67598;DHT22;62026;39.230;9.122;2022-07-23T01:37:09;29.70;48.70
67598;DHT22;62026;39.230;9.122;2022-07-23T01:39:35;29.70;48.60
67598;DHT22;62026;39.230;9.122;2022-07-23T01:42:02;29.70;48.70
67598;DHT22;62026;39.230;9.122;2022-07-23T01:44:28;29.70;48.50
67598;DHT22;62026;39.230;9.122;2022-07-23T01:46:55;29.70;48.30
67598;DHT22;62026;39.230;9.122;2022-07-23T01:49:22;29.70;48.30
67598;DHT22;62026;39.230;9.122;2022-07-23T01:52:07;29.60;48.30
67598;DHT22;62026;39.230;9.122;2022-07-23T01:54:45;29.60;48.30
67598;DHT22;62026;39.230;9.122;2022-07-23T01:57:12;29.60;48.40
67598;DHT22;62026;39.230;9.122;2022-07-23T01:59:38;29.60;48.50
67598;DHT22;62026;39.230;9.122;2022-07-23T02:02:05;29.60;49.00
67598;DHT22;62026;39.230;9.122;2022-07-23T02:04:31;29.60;49.70
67598;DHT22;62026;39.230;9.122;2022-07-23T02:07:01;29.60;50.90
67598;DHT22;62026;39.230;9.122;2022-07-23T02:09:27;29.60;51.40
67598;DHT22;62026;39.230;9.122;2022-07-23T02:11:54;29.60;51.50
67598;DHT22;62026;39.230;9.122;2022-07-23T02:14:20;29.60;51.60
67598;DHT22;62026;39.230;9.122;2022-07-23T02:16:46;29.50;51.60
67598;DHT22;62026;39.230;9.122;2022-07-23T02:19:14;29.50;51.50
67598;DHT22;62026;39.230;9.122;2022-07-23T02:21:40;29.50;51.10
67598;DHT22;62026;39.230;9.122;2022-07-23T02:24:06;29.50;50.30
67598;DHT22;62026;39.230;9.122;2022-07-23T02:26:33;29.50;49.60
67598;DHT22;62026;39.230;9.122;2022-07-23T02:29:03;29.50;49.10
67598;DHT22;62026;39.230;9.122;2022-07-23T02:31:30;29.40;48.70
67598;DHT22;62026;39.230;9.122;2022-07-23T02:33:57;29.40;48.40
67598;DHT22;62026;39.230;9.122;2022-07-23T02:36:23;29.40;48.10
67598;DHT22;62026;39.230;9.122;2022-07-23T02:38:51;29.40;47.90
67598;DHT22;62026;39.230;9.122;2022-07-23T02:41:18;29.30;47.60
67598;DHT22;62026;39.230;9.122;2022-07-23T02:43:44;29.30;47.40
67598;DHT22;62026;39.230;9.122;2022-07-23T02:46:12;29.30;47.30
67598;DHT22;62026;39.230;9.122;2022-07-23T02:48:38;29.30;47.10
67598;DHT22;62026;39.230;9.122;2022-07-23T02:51:05;29.30;47.00
67598;DHT22;62026;39.230;9.122;2022-07-23T02:53:36;29.30;46.90
67598;DHT22;62026;39.230;9.122;2022-07-23T02:56:03;29.30;46.70
67598;DHT22;62026;39.230;9.122;2022-07-23T02:58:29;29.30;46.30
67598;DHT22;62026;39.230;9.122;2022-07-23T03:00:55;29.30;45.90
67598;DHT22;62026;39.230;9.122;2022-07-23T03:03:23;29.20;45.90
67598;DHT22;62026;39.230;9.122;2022-07-23T03:05:50;29.20;45.80
67598;DHT22;62026;39.230;9.122;2022-07-23T03:08:16;29.20;45.60
67598;DHT22;62026;39.230;9.122;2022-07-23T03:10:47;29.20;45.70
67598;DHT22;62026;39.230;9.122;2022-07-23T03:13:13;29.20;45.80
67598;DHT22;62026;39.230;9.122;2022-07-23T03:15:39;29.20;46.00
67598;DHT22;62026;39.230;9.122;2022-07-23T03:18:05;29.20;46.30
67598;DHT22;62026;39.230;9.122;2022-07-23T03:20:32;29.10;46.50
67598;DHT22;62026;39.230;9.122;2022-07-23T03:22:58;29.20;46.60
67598;DHT22;62026;39.230;9.122;2022-07-23T03:25:24;29.10;47.00
67598;DHT22;62026;39.230;9.122;2022-07-23T03:27:50;29.10;47.30
67598;DHT22;62026;39.230;9.122;2022-07-23T03:30:16;29.20;47.60
67598;DHT22;62026;39.230;9.122;2022-07-23T03:32:42;29.10;48.00
67598;DHT22;62026;39.230;9.122;2022-07-23T03:35:08;29.10;48.50
67598;DHT22;62026;39.230;9.122;2022-07-23T03:37:40;29.10;48.80
67598;DHT22;62026;39.230;9.122;2022-07-23T03:40:07;29.20;48.90
67598;DHT22;62026;39.230;9.122;2022-07-23T03:42:33;29.10;48.90
67598;DHT22;62026;39.230;9.122;2022-07-23T03:45:02;29.10;49.00
67598;DHT22;62026;39.230;9.122;2022-07-23T03:47:29;29.10;47.60
67598;DHT22;62026;39.230;9.122;2022-07-23T03:49:55;29.00;47.00
67598;DHT22;62026;39.230;9.122;2022-07-23T03:52:21;29.00;46.40
67598;DHT22;62026;39.230;9.122;2022-07-23T03:54:47;29.00;46.40
67598;DHT22;62026;39.230;9.122;2022-07-23T03:57:13;29.00;46.30
67598;DHT22;62026;39.230;9.122;2022-07-23T03:59:40;29.00;46.30
67598;DHT22;62026;39.230;9.122;2022-07-23T04:02:06;28.90;46.40
67598;DHT22;62026;39.230;9.122;2022-07-23T04:04:33;28.90;46.50
67598;DHT22;62026;39.230;9.122;2022-07-23T04:06:59;28.90;46.70
67598;DHT22;62026;39.230;9.122;2022-07-23T04:09:25;28.90;47.10
67598;DHT22;62026;39.230;9.122;2022-07-23T04:11:51;28.90;47.20
67598;DHT22;62026;39.230;9.122;2022-07-23T04:14:18;28.90;47.10
67598;DHT22;62026;39.230;9.122;2022-07-23T04:16:45;28.90;46.80
67598;DHT22;62026;39.230;9.122;2022-07-23T04:19:12;28.90;46.50
67598;DHT22;62026;39.230;9.122;2022-07-23T04:21:51;28.80;46.80
67598;DHT22;62026;39.230;9.122;2022-07-23T04:24:18;28.80;47.80
67598;DHT22;62026;39.230;9.122;2022-07-23T04:26:45;28.80;48.10
67598;DHT22;62026;39.230;9.122;2022-07-23T04:29:11;28.80;48.80
67598;DHT22;62026;39.230;9.122;2022-07-23T04:31:37;28.80;49.20
67598;DHT22;62026;39.230;9.122;2022-07-23T04:34:05;28.80;49.70
67598;DHT22;62026;39.230;9.122;2022-07-23T04:36:31;28.80;50.40
67598;DHT22;62026;39.230;9.122;2022-07-23T04:38:58;28.80;51.10
67598;DHT22;62026;39.230;9.122;2022-07-23T04:41:25;28.80;51.80
67598;DHT22;62026;39.230;9.122;2022-07-23T04:43:51;28.80;52.20
67598;DHT22;62026;39.230;9.122;2022-07-23T04:46:44;28.70;52.40
67598;DHT22;62026;39.230;9.122;2022-07-23T04:49:18;28.70;52.30
67598;DHT22;62026;39.230;9.122;2022-07-23T04:51:58;28.70;52.00
67598;DHT22;62026;39.230;9.122;2022-07-23T04:54:24;28.70;51.60
67598;DHT22;62026;39.230;9.122;2022-07-23T04:56:50;28.70;51.40
67598;DHT22;62026;39.230;9.122;2022-07-23T04:59:16;28.70;50.90
67598;DHT22;62026;39.230;9.122;2022-07-23T05:01:43;28.70;49.80
67598;DHT22;62026;39.230;9.122;2022-07-23T05:04:10;28.70;49.40
67598;DHT22;62026;39.230;9.122;2022-07-23T05:06:37;28.70;49.70
67598;DHT22;62026;39.230;9.122;2022-07-23T05:09:03;28.70;49.50
67598;DHT22;62026;39.230;9.122;2022-07-23T05:11:29;28.70;49.20
67598;DHT22;62026;39.230;9.122;2022-07-23T05:13:55;28.70;48.80
67598;DHT22;62026;39.230;9.122;2022-07-23T05:16:22;28.70;48.10
67598;DHT22;62026;39.230;9.122;2022-07-23T05:18:50;28.80;47.60
67598;DHT22;62026;39.230;9.122;2022-07-23T05:21:16;28.80;47.40
67598;DHT22;62026;39.230;9.122;2022-07-23T05:23:42;28.80;47.10
67598;DHT22;62026;39.230;9.122;2022-07-23T05:26:08;28.90;47.00
67598;DHT22;62026;39.230;9.122;2022-07-23T05:28:35;28.90;47.10
67598;DHT22;62026;39.230;9.122;2022-07-23T05:31:01;28.90;47.00
67598;DHT22;62026;39.230;9.122;2022-07-23T05:33:30;29.00;47.10
67598;DHT22;62026;39.230;9.122;2022-07-23T05:36:03;29.00;47.00
67598;DHT22;62026;39.230;9.122;2022-07-23T05:38:32;29.10;47.50
67598;DHT22;62026;39.230;9.122;2022-07-23T05:40:59;29.20;47.60
67598;DHT22;62026;39.230;9.122;2022-07-23T05:43:28;29.30;47.90
67598;DHT22;62026;39.230;9.122;2022-07-23T05:45:59;29.50;48.10
67598;DHT22;62026;39.230;9.122;2022-07-23T05:48:25;29.60;48.20
67598;DHT22;62026;39.230;9.122;2022-07-23T05:51:05;29.70;48.20
67598;DHT22;62026;39.230;9.122;2022-07-23T05:53:34;29.80;48.10
67598;DHT22;62026;39.230;9.122;2022-07-23T05:56:14;29.90;48.20
67598;DHT22;62026;39.230;9.122;2022-07-23T05:58:41;29.90;48.40
67598;DHT22;62026;39.230;9.122;2022-07-23T06:01:07;30.00;48.80
67598;DHT22;62026;39.230;9.122;2022-07-23T06:03:44;30.00;49.00
67598;DHT22;62026;39.230;9.122;2022-07-23T06:06:10;30.10;49.10
67598;DHT22;62026;39.230;9.122;2022-07-23T06:08:36;30.10;49.00
67598;DHT22;62026;39.230;9.122;2022-07-23T06:11:02;30.10;49.00
67598;DHT22;62026;39.230;9.122;2022-07-23T06:13:28;30.20;48.80
67598;DHT22;62026;39.230;9.122;2022-07-23T06:15:54;30.20;48.50
67598;DHT22;62026;39.230;9.122;2022-07-23T06:18:20;30.20;48.40
67598;DHT22;62026;39.230;9.122;2022-07-23T06:20:47;30.30;48.00
67598;DHT22;62026;39.230;9.122;2022-07-23T06:23:13;30.40;47.60
67598;DHT22;62026;39.230;9.122;2022-07-23T06:25:39;30.40;47.50
67598;DHT22;62026;39.230;9.122;2022-07-23T06:28:05;30.40;46.90
67598;DHT22;62026;39.230;9.122;2022-07-23T06:30:31;30.40;46.80
67598;DHT22;62026;39.230;9.122;2022-07-23T06:32:57;30.50;46.30
67598;DHT22;62026;39.230;9.122;2022-07-23T06:35:24;30.50;45.80
67598;DHT22;62026;39.230;9.122;2022-07-23T06:37:50;30.50;45.50
67598;DHT22;62026;39.230;9.122;2022-07-23T06:40:16;30.60;45.30
67598;DHT22;62026;39.230;9.122;2022-07-23T06:42:42;30.60;45.20
67598;DHT22;62026;39.230;9.122;2022-07-23T06:45:14;30.70;45.00
67598;DHT22;62026;39.230;9.122;2022-07-23T06:47:41;30.80;44.90
67598;DHT22;62026;39.230;9.122;2022-07-23T06:50:07;30.80;44.80
67598;DHT22;62026;39.230;9.122;2022-07-23T06:52:34;30.90;44.80
67598;DHT22;62026;39.230;9.122;2022-07-23T06:55:00;31.00;44.90
67598;DHT22;62026;39.230;9.122;2022-07-23T06:57:26;31.00;44.70
67598;DHT22;62026;39.230;9.122;2022-07-23T06:59:53;31.10;44.70
67598;DHT22;62026;39.230;9.122;2022-07-23T07:02:19;31.10;45.20
67598;DHT22;62026;39.230;9.122;2022-07-23T07:04:47;31.20;45.20
67598;DHT22;62026;39.230;9.122;2022-07-23T07:07:13;31.30;44.90
67598;DHT22;62026;39.230;9.122;2022-07-23T07:09:39;31.30;44.90
67598;DHT22;62026;39.230;9.122;2022-07-23T07:12:05;31.30;44.40
67598;DHT22;62026;39.230;9.122;2022-07-23T07:14:32;31.50;44.30
67598;DHT22;62026;39.230;9.122;2022-07-23T07:16:58;31.60;44.20
67598;DHT22;62026;39.230;9.122;2022-07-23T07:19:24;31.60;44.30
67598;DHT22;62026;39.230;9.122;2022-07-23T07:21:50;31.80;44.40
67598;DHT22;62026;39.230;9.122;2022-07-23T07:24:16;31.90;44.70
67598;DHT22;62026;39.230;9.122;2022-07-23T07:26:42;31.90;44.40
67598;DHT22;62026;39.230;9.122;2022-07-23T07:29:08;32.00;44.30
67598;DHT22;62026;39.230;9.122;2022-07-23T07:31:34;32.00;44.20
67598;DHT22;62026;39.230;9.122;2022-07-23T07:34:00;32.10;43.80
67598;DHT22;62026;39.230;9.122;2022-07-23T07:36:26;32.00;43.30
67598;DHT22;62026;39.230;9.122;2022-07-23T07:38:52;32.10;43.40
67598;DHT22;62026;39.230;9.122;2022-07-23T07:41:18;32.20;43.20
67598;DHT22;62026;39.230;9.122;2022-07-23T07:43:48;32.40;43.30
67598;DHT22;62026;39.230;9.122;2022-07-23T07:46:14;32.40;43.60
67598;DHT22;62026;39.230;9.122;2022-07-23T07:48:41;32.50;43.80
67598;DHT22;62026;39.230;9.122;2022-07-23T07:51:07;32.40;43.80
67598;DHT22;62026;39.230;9.122;2022-07-23T07:53:33;32.40;43.90
67598;DHT22;62026;39.230;9.122;2022-07-23T07:55:59;32.40;43.70
67598;DHT22;62026;39.230;9.122;2022-07-23T07:58:25;32.40;43.60
67598;DHT22;62026;39.230;9.122;2022-07-23T08:00:51;32.50;43.50
67598;DHT22;62026;39.230;9.122;2022-07-23T08:03:17;32.60;43.50
67598;DHT22;62026;39.230;9.122;2022-07-23T08:05:43;32.50;43.70
67598;DHT22;62026;39.230;9.122;2022-07-23T08:08:09;32.60;43.90
67598;DHT22;62026;39.230;9.122;2022-07-23T08:10:41;32.70;44.00
67598;DHT22;62026;39.230;9.122;2022-07-23T08:13:15;32.40;44.60
67598;DHT22;62026;39.230;9.122;2022-07-23T08:15:42;32.40;44.90
67598;DHT22;62026;39.230;9.122;2022-07-23T08:18:09;32.30;45.50
67598;DHT22;62026;39.230;9.122;2022-07-23T08:20:35;32.20;45.60
67598;DHT22;62026;39.230;9.122;2022-07-23T08:23:08;32.60;45.40
67598;DHT22;62026;39.230;9.122;2022-07-23T08:25:38;32.60;45.40
67598;DHT22;62026;39.230;9.122;2022-07-23T08:28:08;32.60;45.40
67598;DHT22;62026;39.230;9.122;2022-07-23T08:30:36;32.60;45.60
67598;DHT22;62026;39.230;9.122;2022-07-23T08:33:17;32.50;45.80
67598;DHT22;62026;39.230;9.122;2022-07-23T08:35:46;32.50;45.80
67598;DHT22;62026;39.230;9.122;2022-07-23T08:38:16;33.00;45.20
67598;DHT22;62026;39.230;9.122;2022-07-23T08:40:45;33.20;44.70
67598;DHT22;62026;39.230;9.122;2022-07-23T08:43:18;33.00;44.70
67598;DHT22;62026;39.230;9.122;2022-07-23T08:45:48;33.10;44.30
67598;DHT22;62026;39.230;9.122;2022-07-23T08:48:20;32.80;44.40
67598;DHT22;62026;39.230;9.122;2022-07-23T08:50:53;32.80;44.40
67598;DHT22;62026;39.230;9.122;2022-07-23T08:53:22;32.90;44.40
67598;DHT22;62026;39.230;9.122;2022-07-23T08:55:52;33.20;44.00
67598;DHT22;62026;39.230;9.122;2022-07-23T08:58:20;33.40;43.50
67598;DHT22;62026;39.230;9.122;2022-07-23T09:00:47;33.30;43.70
67598;DHT22;62026;39.230;9.122;2022-07-23T09:05:55;33.30;44.00
67598;DHT22;62026;39.230;9.122;2022-07-23T09:08:25;33.40;44.40
67598;DHT22;62026;39.230;9.122;2022-07-23T09:11:01;33.30;44.60
67598;DHT22;62026;39.230;9.122;2022-07-23T09:13:51;33.00;45.30
67598;DHT22;62026;39.230;9.122;2022-07-23T09:16:25;33.10;45.50
67598;DHT22;62026;39.230;9.122;2022-07-23T09:18:59;33.30;45.30
67598;DHT22;62026;39.230;9.122;2022-07-23T09:24:05;33.40;45.30
67598;DHT22;62026;39.230;9.122;2022-07-23T09:26:35;33.40;45.00
67598;DHT22;62026;39.230;9.122;2022-07-23T09:29:04;33.40;44.90
67598;DHT22;62026;39.230;9.122;2022-07-23T09:31:44;33.50;45.10
67598;DHT22;62026;39.230;9.122;2022-07-23T09:37:11;33.70;44.90
67598;DHT22;62026;39.230;9.122;2022-07-23T09:39:40;33.30;45.20
67598;DHT22;62026;39.230;9.122;2022-07-23T09:42:21;33.10;45.20
67598;DHT22;62026;39.230;9.122;2022-07-23T09:44:53;33.10;45.10
67598;DHT22;62026;39.230;9.122;2022-07-23T09:47:22;33.30;44.50
67598;DHT22;62026;39.230;9.122;2022-07-23T09:52:30;33.10;45.10
67598;DHT22;62026;39.230;9.122;2022-07-23T09:55:00;33.20;44.80
67598;DHT22;62026;39.230;9.122;2022-07-23T09:57:28;33.40;44.60
67598;DHT22;62026;39.230;9.122;2022-07-23T09:59:58;33.30;45.00
67598;DHT22;62026;39.230;9.122;2022-07-23T10:02:28;33.30;45.10
67598;DHT22;62026;39.230;9.122;2022-07-23T10:05:26;33.40;44.50
67598;DHT22;62026;39.230;9.122;2022-07-23T10:08:12;33.40;43.20
67598;DHT22;62026;39.230;9.122;2022-07-23T10:10:41;33.50;43.80
67598;DHT22;62026;39.230;9.122;2022-07-23T10:13:27;33.40;42.60
67598;DHT22;62026;39.230;9.122;2022-07-23T10:15:58;33.30;43.90
67598;DHT22;62026;39.230;9.122;2022-07-23T10:18:25;33.50;43.80
67598;DHT22;62026;39.230;9.122;2022-07-23T10:20:51;33.60;43.80
67598;DHT22;62026;39.230;9.122;2022-07-23T10:23:31;33.90;43.30
67598;DHT22;62026;39.230;9.122;2022-07-23T10:26:24;33.90;42.70
67598;DHT22;62026;39.230;9.122;2022-07-23T10:29:24;33.70;42.40
67598;DHT22;62026;39.230;9.122;2022-07-23T10:37:55;33.40;40.70
67598;DHT22;62026;39.230;9.122;2022-07-23T10:40:27;33.50;40.40
67598;DHT22;62026;39.230;9.122;2022-07-23T10:42:59;33.60;40.90
67598;DHT22;62026;39.230;9.122;2022-07-23T10:47:56;33.50;41.30
67598;DHT22;62026;39.230;9.122;2022-07-23T10:51:30;33.60;41.30
67598;DHT22;62026;39.230;9.122;2022-07-23T10:59:16;33.30;41.30
67598;DHT22;62026;39.230;9.122;2022-07-23T11:01:43;33.20;43.90
67598;DHT22;62026;39.230;9.122;2022-07-23T11:04:10;33.30;41.90
67598;DHT22;62026;39.230;9.122;2022-07-23T11:09:40;33.30;39.50
67598;DHT22;62026;39.230;9.122;2022-07-23T11:15:13;33.20;42.60
67598;DHT22;62026;39.230;9.122;2022-07-23T11:25:02;33.10;41.10
67598;DHT22;62026;39.230;9.122;2022-07-23T11:27:45;33.10;40.90
67598;DHT22;62026;39.230;9.122;2022-07-23T11:33:15;33.00;41.00
67598;DHT22;62026;39.230;9.122;2022-07-23T11:35:44;32.90;41.00
67598;DHT22;62026;39.230;9.122;2022-07-23T11:38:31;33.10;42.00
67598;DHT22;62026;39.230;9.122;2022-07-23T11:40:58;33.20;40.20
67598;DHT22;62026;39.230;9.122;2022-07-23T11:43:25;33.10;40.30
67598;DHT22;62026;39.230;9.122;2022-07-23T11:45:58;33.10;41.90
67598;DHT22;62026;39.230;9.122;2022-07-23T11:48:30;33.00;41.30
67598;DHT22;62026;39.230;9.122;2022-07-23T11:50:57;33.10;41.40
67598;DHT22;62026;39.230;9.122;2022-07-23T11:53:26;33.00;42.10
67598;DHT22;62026;39.230;9.122;2022-07-23T11:55:52;33.10;41.60
67598;DHT22;62026;39.230;9.122;2022-07-23T11:58:19;33.20;40.40
67598;DHT22;62026;39.230;9.122;2022-07-23T12:00:46;33.10;41.40
67598;DHT22;62026;39.230;9.122;2022-07-23T12:03:13;33.10;40.90
67598;DHT22;62026;39.230;9.122;2022-07-23T12:05:39;33.10;42.40
67598;DHT22;62026;39.230;9.122;2022-07-23T12:08:08;33.00;41.20
67598;DHT22;62026;39.230;9.122;2022-07-23T12:10:41;33.00;41.00
67598;DHT22;62026;39.230;9.122;2022-07-23T12:13:11;32.90;41.10
67598;DHT22;62026;39.230;9.122;2022-07-23T12:15:42;32.80;41.10
67598;DHT22;62026;39.230;9.122;2022-07-23T12:18:14;32.80;41.80
67598;DHT22;62026;39.230;9.122;2022-07-23T12:20:47;32.80;41.20
67598;DHT22;62026;39.230;9.122;2022-07-23T12:23:18;32.90;41.30
67598;DHT22;62026;39.230;9.122;2022-07-23T12:25:46;33.00;41.30
67598;DHT22;62026;39.230;9.122;2022-07-23T12:28:19;33.00;40.60
67598;DHT22;62026;39.230;9.122;2022-07-23T12:30:48;33.10;41.00
67598;DHT22;62026;39.230;9.122;2022-07-23T12:33:32;33.10;41.10
67598;DHT22;62026;39.230;9.122;2022-07-23T12:36:02;33.10;40.70
67598;DHT22;62026;39.230;9.122;2022-07-23T12:38:41;33.20;40.80
67598;DHT22;62026;39.230;9.122;2022-07-23T12:41:09;33.10;40.00
67598;DHT22;62026;39.230;9.122;2022-07-23T12:43:38;33.00;39.30
67598;DHT22;62026;39.230;9.122;2022-07-23T12:46:07;33.10;38.40
67598;DHT22;62026;39.230;9.122;2022-07-23T12:51:28;33.20;37.70
67598;DHT22;62026;39.230;9.122;2022-07-23T12:54:09;33.30;38.60
67598;DHT22;62026;39.230;9.122;2022-07-23T12:56:39;33.30;38.70
67598;DHT22;62026;39.230;9.122;2022-07-23T12:59:13;33.30;39.10
67598;DHT22;62026;39.230;9.122;2022-07-23T13:01:43;33.30;38.70
67598;DHT22;62026;39.230;9.122;2022-07-23T13:04:18;33.30;39.40
67598;DHT22;62026;39.230;9.122;2022-07-23T13:06:49;33.30;39.30
67598;DHT22;62026;39.230;9.122;2022-07-23T13:09:21;33.30;38.10
67598;DHT22;62026;39.230;9.122;2022-07-23T13:11:51;33.40;37.30
67598;DHT22;62026;39.230;9.122;2022-07-23T13:14:19;33.30;37.90
67598;DHT22;62026;39.230;9.122;2022-07-23T13:16:47;33.40;37.10
67598;DHT22;62026;39.230;9.122;2022-07-23T13:19:15;33.40;37.70
67598;DHT22;62026;39.230;9.122;2022-07-23T13:21:41;33.50;37.30
67598;DHT22;62026;39.230;9.122;2022-07-23T13:24:09;33.50;36.20
67598;DHT22;62026;39.230;9.122;2022-07-23T13:26:36;33.50;36.00
67598;DHT22;62026;39.230;9.122;2022-07-23T13:29:04;33.50;36.10
67598;DHT22;62026;39.230;9.122;2022-07-23T13:31:31;33.50;35.50
67598;DHT22;62026;39.230;9.122;2022-07-23T13:33:57;33.60;34.30
67598;DHT22;62026;39.230;9.122;2022-07-23T13:36:24;33.60;34.30
67598;DHT22;62026;39.230;9.122;2022-07-23T13:38:50;33.60;34.40
67598;DHT22;62026;39.230;9.122;2022-07-23T13:41:17;33.60;34.10
67598;DHT22;62026;39.230;9.122;2022-07-23T13:43:44;33.70;34.00
67598;DHT22;62026;39.230;9.122;2022-07-23T13:46:10;33.60;34.70
67598;DHT22;62026;39.230;9.122;2022-07-23T13:48:36;33.80;34.10
67598;DHT22;62026;39.230;9.122;2022-07-23T13:51:02;33.80;34.80
67598;DHT22;62026;39.230;9.122;2022-07-23T13:53:29;33.80;35.30
67598;DHT22;62026;39.230;9.122;2022-07-23T13:55:55;33.80;37.10
67598;DHT22;62026;39.230;9.122;2022-07-23T13:58:21;33.80;38.40
67598;DHT22;62026;39.230;9.122;2022-07-23T14:00:50;33.70;38.90
67598;DHT22;62026;39.230;9.122;2022-07-23T14:03:20;33.60;38.80
67598;DHT22;62026;39.230;9.122;2022-07-23T14:05:51;33.50;39.50
67598;DHT22;62026;39.230;9.122;2022-07-23T14:08:18;33.50;40.40
67598;DHT22;62026;39.230;9.122;2022-07-23T14:10:45;33.40;41.50
67598;DHT22;62026;39.230;9.122;2022-07-23T14:13:11;33.50;44.60
67598;DHT22;62026;39.230;9.122;2022-07-23T14:15:37;33.50;45.10
67598;DHT22;62026;39.230;9.122;2022-07-23T14:18:06;33.50;45.10
67598;DHT22;62026;39.230;9.122;2022-07-23T14:20:33;33.50;46.30
67598;DHT22;62026;39.230;9.122;2022-07-23T14:22:59;33.40;47.30
67598;DHT22;62026;39.230;9.122;2022-07-23T14:25:26;33.30;48.70
67598;DHT22;62026;39.230;9.122;2022-07-23T14:27:53;33.20;49.40
67598;DHT22;62026;39.230;9.122;2022-07-23T14:30:19;33.20;49.40
67598;DHT22;62026;39.230;9.122;2022-07-23T14:32:45;33.10;49.40
67598;DHT22;62026;39.230;9.122;2022-07-23T14:35:11;33.10;49.90
67598;DHT22;62026;39.230;9.122;2022-07-23T14:37:39;32.90;50.20
67598;DHT22;62026;39.230;9.122;2022-07-23T14:40:06;32.90;51.00
67598;DHT22;62026;39.230;9.122;2022-07-23T14:42:32;32.90;50.70
67598;DHT22;62026;39.230;9.122;2022-07-23T14:44:58;32.90;51.00
67598;DHT22;62026;39.230;9.122;2022-07-23T14:47:24;32.80;51.40
67598;DHT22;62026;39.230;9.122;2022-07-23T14:49:50;32.80;51.20
67598;DHT22;62026;39.230;9.122;2022-07-23T14:52:16;32.80;51.30
67598;DHT22;62026;39.230;9.122;2022-07-23T14:54:42;32.80;51.30
67598;DHT22;62026;39.230;9.122;2022-07-23T14:57:08;32.70;51.30
67598;DHT22;62026;39.230;9.122;2022-07-23T14:59:35;32.70;51.50
67598;DHT22;62026;39.230;9.122;2022-07-23T15:02:01;32.80;50.90
67598;DHT22;62026;39.230;9.122;2022-07-23T15:04:27;32.80;50.30
67598;DHT22;62026;39.230;9.122;2022-07-23T15:06:53;32.80;50.80
67598;DHT22;62026;39.230;9.122;2022-07-23T15:09:20;32.80;51.00
67598;DHT22;62026;39.230;9.122;2022-07-23T15:11:46;32.80;51.30
67598;DHT22;62026;39.230;9.122;2022-07-23T15:14:12;32.80;51.50
67598;DHT22;62026;39.230;9.122;2022-07-23T15:16:38;32.80;51.90
67598;DHT22;62026;39.230;9.122;2022-07-23T15:19:04;32.70;52.40
67598;DHT22;62026;39.230;9.122;2022-07-23T15:21:31;32.70;52.30
67598;DHT22;62026;39.230;9.122;2022-07-23T15:23:58;32.70;52.80
67598;DHT22;62026;39.230;9.122;2022-07-23T15:26:30;32.60;53.20
67598;DHT22;62026;39.230;9.122;2022-07-23T15:28:57;32.60;53.40
67598;DHT22;62026;39.230;9.122;2022-07-23T15:31:24;32.50;53.80
67598;DHT22;62026;39.230;9.122;2022-07-23T15:33:51;32.50;54.10
67598;DHT22;62026;39.230;9.122;2022-07-23T15:36:18;32.60;54.00
67598;DHT22;62026;39.230;9.122;2022-07-23T15:38:45;32.60;54.30
67598;DHT22;62026;39.230;9.122;2022-07-23T15:41:12;32.60;54.30
67598;DHT22;62026;39.230;9.122;2022-07-23T15:43:38;32.70;54.40
67598;DHT22;62026;39.230;9.122;2022-07-23T15:46:05;32.60;54.20
67598;DHT22;62026;39.230;9.122;2022-07-23T15:48:34;32.50;54.10
67598;DHT22;62026;39.230;9.122;2022-07-23T15:51:02;32.50;54.50
67598;DHT22;62026;39.230;9.122;2022-07-23T15:53:28;32.50;53.90
67598;DHT22;62026;39.230;9.122;2022-07-23T15:55:55;32.50;54.20
67598;DHT22;62026;39.230;9.122;2022-07-23T15:58:21;32.40;53.80
67598;DHT22;62026;39.230;9.122;2022-07-23T16:00:47;32.40;54.60
67598;DHT22;62026;39.230;9.122;2022-07-23T16:03:14;32.40;54.90
67598;DHT22;62026;39.230;9.122;2022-07-23T16:05:43;32.40;54.70
67598;DHT22;62026;39.230;9.122;2022-07-23T16:08:09;32.50;54.60
67598;DHT22;62026;39.230;9.122;2022-07-23T16:10:36;32.40;55.00
67598;DHT22;62026;39.230;9.122;2022-07-23T16:13:02;32.50;54.90
67598;DHT22;62026;39.230;9.122;2022-07-23T16:15:28;32.40;54.90
67598;DHT22;62026;39.230;9.122;2022-07-23T16:17:56;32.40;54.40
67598;DHT22;62026;39.230;9.122;2022-07-23T16:20:23;32.40;55.00
67598;DHT22;62026;39.230;9.122;2022-07-23T16:22:49;32.20;55.40